Truesdale, Iowa
Current Conditions -  °F | °C
As of 11:15 AM on Saturday 25 Oct 2014 (Local Time) from KSLB Reporting Station
Clear Clear  
Wind Chill: 63°   Ceiling: Unl
Heat Index: 63°   Visibility: 10mi
Dew Point: 36°   Wind: 9mph
Humidity: 37%   Direction: 40°NE
Pressure: 30.15"   Gusts: NA
Location:  42.73°N, 95.18°W
Report Text: KSLB 251615Z AUTO 04008KT 10SM CLR 17/02 A3015 RMK AO2
Loading
Personal Weather Stations






























Interactive Weather Map
Tropical Storm Tracking
New forecast layout! Learn more

10-Day Weather Forecast

Advertisements
Track Severe Weather on mobile